createdAt,value
2022-12-02T00:01:58.489Z,21.71
2022-12-02T00:04:25.309Z,21.11
2022-12-02T00:06:52.123Z,19.45
2022-12-02T00:09:18.979Z,18.60
2022-12-02T00:11:45.859Z,19.27
2022-12-02T00:14:12.583Z,19.69
2022-12-02T00:16:39.359Z,20.28
2022-12-02T00:19:06.166Z,20.64
2022-12-02T00:21:32.941Z,20.82
2022-12-02T00:23:59.681Z,20.96
2022-12-02T00:26:26.425Z,21.09
2022-12-02T00:28:53.148Z,21.12
2022-12-02T00:31:19.974Z,21.19
2022-12-02T00:33:46.767Z,21.40
2022-12-02T00:36:13.494Z,21.39
2022-12-02T00:38:40.225Z,21.57
2022-12-02T00:41:07.008Z,21.64
2022-12-02T00:43:52.607Z,21.73
2022-12-02T00:46:37.588Z,20.03
2022-12-02T00:49:04.315Z,18.90
2022-12-02T00:51:31.072Z,18.92
2022-12-02T00:53:57.895Z,19.63
2022-12-02T00:56:24.699Z,20.23
2022-12-02T00:58:51.434Z,20.53
2022-12-02T01:01:18.282Z,20.80
2022-12-02T01:03:46.244Z,21.01
2022-12-02T01:06:13.135Z,21.05
2022-12-02T01:08:39.897Z,21.19
2022-12-02T01:11:06.626Z,21.26
2022-12-02T01:13:33.353Z,21.29
2022-12-02T01:16:00.245Z,21.40
2022-12-02T01:18:27.006Z,21.60
2022-12-02T01:20:53.735Z,21.58
2022-12-02T01:23:20.574Z,21.66
2022-12-02T01:25:48.371Z,20.55
2022-12-02T01:28:15.113Z,19.19
2022-12-02T01:30:41.979Z,18.63
2022-12-02T01:33:08.718Z,19.28
2022-12-02T01:35:35.475Z,19.91
2022-12-02T01:38:02.294Z,20.37
2022-12-02T01:40:29.033Z,20.62
2022-12-02T01:42:55.806Z,20.79
2022-12-02T01:45:22.676Z,21.02
2022-12-02T01:47:49.432Z,21.10
2022-12-02T01:50:16.207Z,21.27
2022-12-02T01:52:42.984Z,21.29
2022-12-02T01:55:09.730Z,21.39
2022-12-02T01:57:36.468Z,21.50
2022-12-02T02:00:03.441Z,21.48
2022-12-02T02:02:30.375Z,21.60
2022-12-02T02:04:57.173Z,21.69
2022-12-02T02:07:24.023Z,21.81
2022-12-02T02:09:50.760Z,20.27
2022-12-02T02:12:17.483Z,19.15
2022-12-02T02:14:44.256Z,18.80
2022-12-02T02:17:11.147Z,19.35
2022-12-02T02:19:37.902Z,19.82
2022-12-02T02:22:04.630Z,20.30
2022-12-02T02:24:31.441Z,20.74
2022-12-02T02:26:58.172Z,20.82
2022-12-02T02:29:24.908Z,20.96
2022-12-02T02:31:51.629Z,21.05
2022-12-02T02:34:18.563Z,21.20
2022-12-02T02:36:45.300Z,21.31
2022-12-02T02:39:12.017Z,21.36
2022-12-02T02:41:38.778Z,21.45
2022-12-02T02:44:05.572Z,21.55
2022-12-02T02:46:32.366Z,21.60
2022-12-02T02:48:59.118Z,21.70
2022-12-02T02:51:25.890Z,20.45
2022-12-02T02:53:52.658Z,19.09
2022-12-02T02:56:19.424Z,18.71
2022-12-02T02:58:46.237Z,19.33
2022-12-02T03:01:13.523Z,19.97
2022-12-02T03:03:40.373Z,20.49
2022-12-02T03:06:07.166Z,20.64
2022-12-02T03:08:33.906Z,20.90
2022-12-02T03:11:00.670Z,21.02
2022-12-02T03:13:27.477Z,21.13
2022-12-02T03:15:54.262Z,21.26
2022-12-02T03:18:20.988Z,21.31
2022-12-02T03:20:47.728Z,21.41
2022-12-02T03:23:14.474Z,21.50
2022-12-02T03:25:41.247Z,21.63
2022-12-02T03:28:07.995Z,21.70
2022-12-02T03:30:34.744Z,21.00
2022-12-02T03:33:01.534Z,19.33
2022-12-02T03:35:28.285Z,18.46
2022-12-02T03:37:55.019Z,19.24
2022-12-02T03:40:21.744Z,19.63
2022-12-02T03:42:48.487Z,20.13
2022-12-02T03:45:15.200Z,20.48
2022-12-02T03:47:42.250Z,20.78
2022-12-02T03:50:09.008Z,20.87
2022-12-02T03:52:35.755Z,20.94
2022-12-02T03:55:02.515Z,21.11
2022-12-02T03:57:29.286Z,21.18
2022-12-02T03:59:55.995Z,21.26
2022-12-02T04:02:22.771Z,21.42
2022-12-02T04:04:49.960Z,21.47
2022-12-02T04:07:16.837Z,21.53
2022-12-02T04:09:43.564Z,21.64
2022-12-02T04:12:10.323Z,21.72
2022-12-02T04:14:37.197Z,20.93
2022-12-02T04:17:08.115Z,19.37
2022-12-02T04:19:35.320Z,18.64
2022-12-02T04:22:02.160Z,19.28
2022-12-02T04:24:28.948Z,19.66
2022-12-02T04:26:55.720Z,20.29
2022-12-02T04:29:22.620Z,20.59
2022-12-02T04:31:49.409Z,20.78
2022-12-02T04:34:16.152Z,20.91
2022-12-02T04:36:42.873Z,21.11
2022-12-02T04:39:09.606Z,21.17
2022-12-02T04:41:36.362Z,21.30
2022-12-02T04:44:03.729Z,21.40
2022-12-02T04:46:30.548Z,21.45
2022-12-02T04:48:57.354Z,21.53
2022-12-02T04:51:24.131Z,21.63
2022-12-02T04:53:50.870Z,21.62
2022-12-02T04:56:17.698Z,20.06
2022-12-02T04:58:44.433Z,18.97
2022-12-02T05:01:11.148Z,18.86
2022-12-02T05:03:37.996Z,19.23
2022-12-02T05:06:04.775Z,19.75
2022-12-02T05:08:31.527Z,20.30
2022-12-02T05:10:58.267Z,20.58
2022-12-02T05:13:24.996Z,20.72
2022-12-02T05:15:51.786Z,20.88
2022-12-02T05:18:18.545Z,20.99
2022-12-02T05:20:45.308Z,21.20
2022-12-02T05:23:13.627Z,21.26
2022-12-02T05:25:40.371Z,21.31
2022-12-02T05:28:07.108Z,21.43
2022-12-02T05:30:33.877Z,21.46
2022-12-02T05:33:00.613Z,21.56
2022-12-02T05:35:27.371Z,21.59
2022-12-02T05:37:54.147Z,21.63
2022-12-02T05:40:20.920Z,20.40
2022-12-02T05:42:47.643Z,19.11
2022-12-02T05:47:41.527Z,19.23
2022-12-02T05:50:08.248Z,19.96
2022-12-02T05:52:34.988Z,20.39
2022-12-02T05:55:01.902Z,20.63
2022-12-02T05:57:28.819Z,20.76
2022-12-02T05:59:55.589Z,20.91
2022-12-02T06:02:22.428Z,21.11
2022-12-02T06:04:49.501Z,21.19
2022-12-02T06:07:16.506Z,21.33
2022-12-02T06:09:43.285Z,21.38
2022-12-02T06:12:10.022Z,21.56
2022-12-02T06:14:36.838Z,21.56
2022-12-02T06:17:03.671Z,21.59
2022-12-02T06:19:35.769Z,21.72
2022-12-02T06:22:03.891Z,20.80
2022-12-02T06:24:30.634Z,19.25
2022-12-02T06:26:57.356Z,18.66
2022-12-02T06:29:24.088Z,19.25
2022-12-02T06:31:50.895Z,19.29
2022-12-02T06:34:17.643Z,20.10
2022-12-02T06:36:44.395Z,20.49
2022-12-02T06:39:11.137Z,20.73
2022-12-02T06:41:37.866Z,20.90
2022-12-02T06:44:23.124Z,21.07
2022-12-02T06:46:49.866Z,21.09
2022-12-02T06:49:17.006Z,21.22
2022-12-02T06:51:43.787Z,21.30
2022-12-02T06:54:10.514Z,21.36
2022-12-02T06:56:37.391Z,21.42
2022-12-02T06:59:04.259Z,21.53
2022-12-02T07:01:31.373Z,21.65
2022-12-02T07:03:58.197Z,21.56
2022-12-02T07:06:24.967Z,19.68
2022-12-02T07:08:51.712Z,18.78
2022-12-02T07:11:18.439Z,19.04
2022-12-02T07:13:45.194Z,19.58
2022-12-02T07:16:11.962Z,20.25
2022-12-02T07:18:40.086Z,20.60
2022-12-02T07:21:07.032Z,20.80
2022-12-02T07:23:33.767Z,20.99
2022-12-02T07:26:00.633Z,21.15
2022-12-02T07:28:27.611Z,21.15
2022-12-02T07:30:54.346Z,21.20
2022-12-02T07:33:21.089Z,21.41
2022-12-02T07:35:47.830Z,21.46
2022-12-02T07:38:14.560Z,21.55
2022-12-02T07:40:43.084Z,21.56
2022-12-02T07:43:09.909Z,20.94
2022-12-02T07:45:36.714Z,19.19
2022-12-02T07:48:03.437Z,18.38
2022-12-02T07:50:30.181Z,19.20
2022-12-02T07:52:56.917Z,19.73
2022-12-02T07:55:26.444Z,20.27
2022-12-02T07:57:53.605Z,20.57
2022-12-02T08:00:20.362Z,20.77
2022-12-02T08:02:47.100Z,20.94
2022-12-02T08:05:13.882Z,21.01
2022-12-02T08:07:42.410Z,21.13
2022-12-02T08:10:09.158Z,21.35
2022-12-02T08:12:35.921Z,21.29
2022-12-02T08:15:02.638Z,21.41
2022-12-02T08:17:29.377Z,21.54
2022-12-02T08:19:56.127Z,21.59
2022-12-02T08:22:22.874Z,21.76
2022-12-02T08:24:50.081Z,20.69
2022-12-02T08:27:17.246Z,19.12
2022-12-02T08:29:43.959Z,18.60
2022-12-02T08:32:10.684Z,19.31
2022-12-02T08:34:37.421Z,19.63
2022-12-02T08:37:04.139Z,20.15
2022-12-02T08:39:30.851Z,20.52
2022-12-02T08:41:57.595Z,20.74
2022-12-02T08:44:24.319Z,20.91
2022-12-02T08:46:54.345Z,21.05
2022-12-02T08:49:21.607Z,21.25
2022-12-02T08:51:48.327Z,21.33
2022-12-02T08:54:15.264Z,21.39
2022-12-02T08:56:42.007Z,21.44
2022-12-02T08:59:08.948Z,21.55
2022-12-02T09:01:35.783Z,21.58
2022-12-02T09:04:02.632Z,21.68
2022-12-02T09:06:34.334Z,20.05
2022-12-02T09:09:02.775Z,18.91
2022-12-02T09:11:29.548Z,18.99
2022-12-02T09:13:56.291Z,19.40
2022-12-02T09:16:23.074Z,19.96
2022-12-02T09:18:51.044Z,20.40
2022-12-02T09:21:18.020Z,20.64
2022-12-02T09:23:50.197Z,20.89
2022-12-02T09:26:17.420Z,20.99
2022-12-02T09:28:44.149Z,21.18
2022-12-02T09:31:10.907Z,21.23
2022-12-02T09:33:37.679Z,21.35
2022-12-02T09:36:04.387Z,21.47
2022-12-02T09:38:32.083Z,21.47
2022-12-02T09:40:58.831Z,21.68
2022-12-02T09:43:25.548Z,21.63
2022-12-02T09:45:52.333Z,20.26
2022-12-02T09:48:19.104Z,19.07
2022-12-02T09:50:45.847Z,18.78
2022-12-02T09:53:12.648Z,19.24
2022-12-02T09:55:39.417Z,19.64
2022-12-02T09:58:06.173Z,20.17
2022-12-02T10:00:32.895Z,20.52
2022-12-02T10:02:59.677Z,20.75
2022-12-02T10:05:26.456Z,20.95
2022-12-02T10:07:53.243Z,21.04
2022-12-02T10:10:20.115Z,21.13
2022-12-02T10:12:47.001Z,21.21
2022-12-02T10:15:13.776Z,21.31
2022-12-02T10:17:40.540Z,21.48
2022-12-02T10:20:07.279Z,21.54
2022-12-02T10:22:34.053Z,21.60
2022-12-02T10:25:01.622Z,21.61
2022-12-02T10:27:28.384Z,21.52
2022-12-02T10:29:55.104Z,19.69
2022-12-02T10:32:21.856Z,18.69
2022-12-02T10:34:48.637Z,19.16
2022-12-02T10:37:15.513Z,19.49
2022-12-02T10:39:42.251Z,20.17
2022-12-02T10:42:09.071Z,20.67
2022-12-02T10:44:35.846Z,20.83
2022-12-02T10:47:02.640Z,20.94
2022-12-02T10:49:29.468Z,21.08
2022-12-02T10:51:56.273Z,21.19
2022-12-02T10:54:23.069Z,21.34
2022-12-02T10:56:49.856Z,21.35
2022-12-02T10:59:16.835Z,21.51
2022-12-02T11:01:43.678Z,21.59
2022-12-02T11:04:10.475Z,21.63
2022-12-02T11:06:37.214Z,19.76
2022-12-02T11:09:37.880Z,18.93
2022-12-02T11:11:50.647Z,19.18
2022-12-02T11:14:17.522Z,19.40
2022-12-02T11:16:53.462Z,19.99
2022-12-02T11:19:21.049Z,20.42
2022-12-02T11:21:47.785Z,20.73
2022-12-02T11:24:14.886Z,20.89
2022-12-02T11:26:41.631Z,21.05
2022-12-02T11:29:08.366Z,21.17
2022-12-02T11:31:35.155Z,21.24
2022-12-02T11:34:05.848Z,21.39
2022-12-02T11:36:33.195Z,21.38
2022-12-02T11:39:01.241Z,21.47
2022-12-02T11:41:27.995Z,21.56
2022-12-02T11:43:54.776Z,21.63
2022-12-02T11:46:21.597Z,20.42
2022-12-02T11:48:48.364Z,19.17
2022-12-02T11:51:15.092Z,18.82
2022-12-02T11:53:41.816Z,19.33
2022-12-02T11:56:08.559Z,19.98
2022-12-02T11:58:35.351Z,20.44
2022-12-02T12:01:02.152Z,20.71
2022-12-02T12:03:28.981Z,20.96
2022-12-02T12:05:55.777Z,21.06
2022-12-02T12:08:22.530Z,21.18
2022-12-02T12:10:49.277Z,21.23
2022-12-02T12:13:16.054Z,21.41
2022-12-02T12:15:42.809Z,21.49
2022-12-02T12:18:09.850Z,21.51
2022-12-02T12:20:36.638Z,21.63
2022-12-02T12:23:03.621Z,21.64
2022-12-02T12:25:33.720Z,20.39
2022-12-02T12:28:00.452Z,18.95
2022-12-02T12:30:27.240Z,18.73
2022-12-02T12:32:54.045Z,19.11
2022-12-02T12:35:20.783Z,19.56
2022-12-02T12:37:47.567Z,20.21
2022-12-02T12:40:14.321Z,20.55
2022-12-02T12:42:41.445Z,20.80
2022-12-02T12:45:08.176Z,21.00
2022-12-02T12:47:34.995Z,21.08
2022-12-02T12:50:01.821Z,21.22
2022-12-02T12:52:28.580Z,21.28
2022-12-02T12:54:55.552Z,21.41
2022-12-02T12:57:22.354Z,21.49
2022-12-02T12:59:49.432Z,21.51
2022-12-02T13:02:16.650Z,21.59
2022-12-02T13:04:43.482Z,21.31
2022-12-02T13:07:10.218Z,19.48
2022-12-02T13:09:36.965Z,18.69
2022-12-02T13:12:06.259Z,19.21
2022-12-02T13:14:36.542Z,19.18
2022-12-02T13:17:03.351Z,19.91
2022-12-02T13:19:30.109Z,20.40
2022-12-02T13:21:56.861Z,20.63
2022-12-02T13:24:23.600Z,20.81
2022-12-02T13:26:50.322Z,20.97
2022-12-02T13:29:17.063Z,21.13
2022-12-02T13:31:43.980Z,21.19
2022-12-02T13:34:11.896Z,21.27
2022-12-02T13:36:38.634Z,21.42
2022-12-02T13:39:06.682Z,21.46
2022-12-02T13:41:33.721Z,21.60
2022-12-02T13:44:00.483Z,21.68
2022-12-02T13:46:27.373Z,21.08
2022-12-02T13:48:54.190Z,19.38
2022-12-02T13:51:20.949Z,18.66
2022-12-02T13:53:47.705Z,19.32
2022-12-02T13:56:14.483Z,19.42
2022-12-02T13:58:41.214Z,20.17
2022-12-02T14:01:08.112Z,20.54
2022-12-02T14:03:34.896Z,20.72
2022-12-02T14:06:01.672Z,20.88
2022-12-02T14:08:28.415Z,21.01
2022-12-02T14:10:55.142Z,21.17
2022-12-02T14:13:21.940Z,21.28
2022-12-02T14:15:48.789Z,21.37
2022-12-02T14:18:15.618Z,21.50
2022-12-02T14:20:42.350Z,21.58
2022-12-02T14:23:11.679Z,21.60
2022-12-02T14:25:38.476Z,21.34
2022-12-02T14:28:05.225Z,19.59
2022-12-02T14:30:31.987Z,18.72
2022-12-02T14:32:58.746Z,19.33
2022-12-02T14:35:25.463Z,19.28
2022-12-02T14:37:52.214Z,20.05
2022-12-02T14:40:18.989Z,20.48
2022-12-02T14:42:45.758Z,20.80
2022-12-02T14:45:12.505Z,20.94
2022-12-02T14:47:39.223Z,21.04
2022-12-02T14:50:06.123Z,21.19
2022-12-02T14:52:33.018Z,21.30
2022-12-02T14:54:59.773Z,21.36
2022-12-02T14:57:26.534Z,21.44
2022-12-02T14:59:53.339Z,21.54
2022-12-02T15:02:20.188Z,21.64
2022-12-02T15:04:47.131Z,20.98
2022-12-02T15:07:13.859Z,19.23
2022-12-02T15:09:40.580Z,18.58
2022-12-02T15:12:07.509Z,19.26
2022-12-02T15:14:34.347Z,19.76
2022-12-02T15:17:01.216Z,20.26
2022-12-02T15:19:28.026Z,20.57
2022-12-02T15:21:54.780Z,20.83
2022-12-02T15:24:21.529Z,20.98
2022-12-02T15:26:52.341Z,21.13
2022-12-02T15:29:21.947Z,21.22
2022-12-02T15:31:48.797Z,21.28
2022-12-02T15:34:15.576Z,21.32
2022-12-02T15:36:42.347Z,21.41
2022-12-02T15:39:09.112Z,21.55
2022-12-02T15:41:35.848Z,21.61
2022-12-02T15:44:02.600Z,21.66
2022-12-02T15:46:29.383Z,21.81
2022-12-02T15:48:56.277Z,20.27
2022-12-02T15:51:23.057Z,18.67
2022-12-02T15:53:49.780Z,18.27
2022-12-02T15:56:16.715Z,19.20
2022-12-02T15:58:43.549Z,20.11
2022-12-02T16:01:10.408Z,20.41
2022-12-02T16:03:37.252Z,20.64
2022-12-02T16:06:04.032Z,20.87
2022-12-02T16:08:32.993Z,20.99
2022-12-02T16:10:59.723Z,21.12
2022-12-02T16:13:26.544Z,21.24
2022-12-02T16:15:53.382Z,21.30
2022-12-02T16:18:20.229Z,21.38
2022-12-02T16:20:52.267Z,21.48
2022-12-02T16:23:22.172Z,21.57
2022-12-02T16:25:48.935Z,21.60
2022-12-02T16:28:15.666Z,19.61
2022-12-02T16:30:42.411Z,18.40
2022-12-02T16:33:09.278Z,18.72
2022-12-02T16:35:36.040Z,19.42
2022-12-02T16:38:04.868Z,20.14
2022-12-02T16:40:31.872Z,20.48
2022-12-02T16:42:58.706Z,20.75
2022-12-02T16:45:25.494Z,20.86
2022-12-02T16:47:52.415Z,21.03
2022-12-02T16:50:19.193Z,21.12
2022-12-02T16:52:45.938Z,21.28
2022-12-02T16:55:12.677Z,21.32
2022-12-02T16:57:39.405Z,21.39
2022-12-02T17:00:06.137Z,21.53
2022-12-02T17:02:32.968Z,21.57
2022-12-02T17:04:59.726Z,21.60
2022-12-02T17:07:26.520Z,21.50
2022-12-02T17:09:53.415Z,19.48
2022-12-02T17:12:20.176Z,18.48
2022-12-02T17:14:50.738Z,18.82
2022-12-02T17:17:44.223Z,19.50
2022-12-02T17:20:07.317Z,20.24
2022-12-02T17:22:34.103Z,20.55
2022-12-02T17:25:00.849Z,20.74
2022-12-02T17:27:27.572Z,20.87
2022-12-02T17:29:54.323Z,21.06
2022-12-02T17:32:21.245Z,21.22
2022-12-02T17:34:48.072Z,21.23
2022-12-02T17:37:14.874Z,21.42
2022-12-02T17:39:41.607Z,21.45
2022-12-02T17:42:08.355Z,21.52
2022-12-02T17:44:35.115Z,21.56
2022-12-02T17:47:01.852Z,20.85
2022-12-02T17:49:33.995Z,18.61
2022-12-02T17:52:19.204Z,17.96
2022-12-02T17:54:46.757Z,18.93
2022-12-02T17:57:13.547Z,19.77
2022-12-02T17:59:41.252Z,20.26
2022-12-02T18:02:08.044Z,20.52
2022-12-02T18:04:34.872Z,20.71
2022-12-02T18:07:06.550Z,20.81
2022-12-02T18:09:36.305Z,21.02
2022-12-02T18:12:03.051Z,21.05
2022-12-02T18:14:29.792Z,21.17
2022-12-02T18:16:56.635Z,21.30
2022-12-02T18:19:23.379Z,21.40
2022-12-02T18:21:50.128Z,21.44
2022-12-02T18:24:16.890Z,21.60
2022-12-02T18:26:43.639Z,21.58
2022-12-02T18:29:10.680Z,21.62
2022-12-02T18:31:37.447Z,21.64
2022-12-02T18:34:04.169Z,20.14
2022-12-02T18:36:30.912Z,18.58
2022-12-02T18:38:57.644Z,18.06
2022-12-02T18:41:24.370Z,18.95
2022-12-02T18:43:51.264Z,19.87
2022-12-02T18:46:18.088Z,20.32
2022-12-02T18:48:44.950Z,20.53
2022-12-02T18:51:11.714Z,20.80
2022-12-02T18:53:38.532Z,20.87
2022-12-02T18:56:05.328Z,20.95
2022-12-02T18:58:32.117Z,21.14
2022-12-02T19:00:58.917Z,21.23
2022-12-02T19:03:25.683Z,21.26
2022-12-02T19:05:52.436Z,21.46
2022-12-02T19:08:19.266Z,21.43
2022-12-02T19:10:46.109Z,21.62
2022-12-02T19:13:12.829Z,21.59
2022-12-02T19:15:39.656Z,20.68
2022-12-02T19:18:06.467Z,18.91
2022-12-02T19:20:33.279Z,18.02
2022-12-02T19:23:00.083Z,19.03
2022-12-02T19:25:28.920Z,19.95
2022-12-02T19:27:58.165Z,20.38
2022-12-02T19:30:25.779Z,20.59
2022-12-02T19:32:52.599Z,20.77
2022-12-02T19:35:19.396Z,20.90
2022-12-02T19:37:46.198Z,21.03
2022-12-02T19:40:12.923Z,21.18
2022-12-02T19:42:39.711Z,21.22
2022-12-02T19:45:06.503Z,21.33
2022-12-02T19:47:33.223Z,21.45
2022-12-02T19:49:59.952Z,21.54
2022-12-02T19:52:26.729Z,21.60
2022-12-02T19:54:53.952Z,21.62
2022-12-02T19:57:20.908Z,20.61
2022-12-02T19:59:47.658Z,18.83
2022-12-02T20:02:14.438Z,17.95
2022-12-02T20:04:53.056Z,19.30
2022-12-02T20:07:20.101Z,20.26
2022-12-02T20:09:46.932Z,20.63
2022-12-02T20:12:13.651Z,20.68
2022-12-02T20:14:40.473Z,20.92
2022-12-02T20:17:07.210Z,21.01
2022-12-02T20:19:33.978Z,21.16
2022-12-02T20:22:00.756Z,21.26
2022-12-02T20:24:27.474Z,21.30
2022-12-02T20:26:55.581Z,21.43
2022-12-02T20:29:22.337Z,21.43
2022-12-02T20:31:49.129Z,21.55
2022-12-02T20:34:15.969Z,21.63
2022-12-02T20:36:42.719Z,20.55
2022-12-02T20:39:10.153Z,18.56
2022-12-02T20:41:36.895Z,17.53
2022-12-02T20:44:03.652Z,19.09
2022-12-02T20:46:30.611Z,19.96
2022-12-02T20:48:57.954Z,20.45
2022-12-02T20:51:25.035Z,20.59
2022-12-02T20:53:52.556Z,20.76
2022-12-02T20:56:20.432Z,20.93
2022-12-02T20:58:49.175Z,20.96
2022-12-02T21:01:15.990Z,21.06
2022-12-02T21:03:42.827Z,21.23
2022-12-02T21:06:09.572Z,21.31
2022-12-02T21:08:36.370Z,21.41
2022-12-02T21:11:03.295Z,21.41
2022-12-02T21:13:30.035Z,21.49
2022-12-02T21:15:56.811Z,21.59
2022-12-02T21:18:25.053Z,21.63
2022-12-02T21:20:51.846Z,21.69
2022-12-02T21:23:18.966Z,19.73
2022-12-02T21:25:45.763Z,18.39
2022-12-02T21:28:12.570Z,18.66
2022-12-02T21:30:40.657Z,19.39
2022-12-02T21:33:07.408Z,20.10
2022-12-02T21:35:34.219Z,20.44
2022-12-02T21:38:01.020Z,20.67
2022-12-02T21:40:27.755Z,20.90
2022-12-02T21:42:54.510Z,21.02
2022-12-02T21:45:21.308Z,21.19
2022-12-02T21:47:48.176Z,21.26
2022-12-02T21:50:14.949Z,21.31
2022-12-02T21:52:41.662Z,21.48
2022-12-02T21:55:08.403Z,21.51
2022-12-02T21:57:35.161Z,21.52
2022-12-02T22:00:01.939Z,21.63
2022-12-02T22:02:28.756Z,21.22
2022-12-02T22:04:55.758Z,19.37
2022-12-02T22:07:40.778Z,18.36
2022-12-02T22:10:07.654Z,19.18
2022-12-02T22:12:34.394Z,19.87
2022-12-02T22:15:01.119Z,20.43
2022-12-02T22:17:27.855Z,20.64
2022-12-02T22:19:54.581Z,20.85
2022-12-02T22:22:21.340Z,20.90
2022-12-02T22:24:48.083Z,21.13
2022-12-02T22:27:14.835Z,21.18
2022-12-02T22:29:41.621Z,21.33
2022-12-02T22:32:08.424Z,21.33
2022-12-02T22:34:35.224Z,21.47
2022-12-02T22:37:01.952Z,21.48
2022-12-02T22:39:28.798Z,21.62
2022-12-02T22:41:55.572Z,21.72
2022-12-02T22:44:22.332Z,21.70
2022-12-02T22:46:49.090Z,20.13
2022-12-02T22:49:15.837Z,18.55
2022-12-02T22:51:42.616Z,18.25
2022-12-02T22:54:09.438Z,19.10
2022-12-02T22:56:36.174Z,19.89
2022-12-02T22:59:02.923Z,20.36
2022-12-02T23:01:31.155Z,20.67
2022-12-02T23:03:57.988Z,20.75
2022-12-02T23:06:24.899Z,20.90
2022-12-02T23:08:51.799Z,21.02
2022-12-02T23:11:18.519Z,21.07
2022-12-02T23:13:45.248Z,21.22
2022-12-02T23:16:12.094Z,21.32
2022-12-02T23:18:38.873Z,21.43
2022-12-02T23:21:05.668Z,21.45
2022-12-02T23:23:32.428Z,21.63
2022-12-02T23:25:59.163Z,21.60
2022-12-02T23:28:25.922Z,20.65
2022-12-02T23:30:52.790Z,18.99
2022-12-02T23:33:19.546Z,17.98
2022-12-02T23:35:46.339Z,19.04
2022-12-02T23:38:13.200Z,19.89
2022-12-02T23:40:39.933Z,20.31
2022-12-02T23:43:06.686Z,20.60
2022-12-02T23:45:33.556Z,20.83
2022-12-02T23:48:00.343Z,20.94
2022-12-02T23:50:27.110Z,21.08
2022-12-02T23:52:53.967Z,21.21
2022-12-02T23:55:20.762Z,21.25
2022-12-02T23:57:47.509Z,21.27
